Time;durP1;ratioP1;P1;durP2;ratioP2;P2;SDS_P1;SDS_P2;PMS_P1;PMS_P2;Temp;Humidity;BMP_temperature;BMP_pressure;BME280_temperature;BME280_humidity;BME280_pressure;Samples;Min_cycle;Max_cycle;Signal;HPM_P1;HPM_P2
2022/08/12 00:44:20;;;;;;;3.65;3.35;;;;;;;22.34;49.34;94975.22;4977744;28;20209;-62
2022/08/12 00:46:52;;;;;;;3.33;3.13;;;;;;;22.41;49.16;94978.66;4989066;28;20195;-61
2022/08/12 00:49:19;;;;;;;3.67;3.38;;;;;;;22.34;49.34;94975.22;5000970;28;20253;-61
2022/08/12 00:52:06;;;;;;;3.65;3.45;;;;;;;22.39;49.36;94977.25;4992053;28;20225;-61
2022/08/12 00:54:40;;;;;;;3.90;3.22;;;;;;;22.40;49.61;94971.66;4985553;28;20227;-62
2022/08/12 00:57:13;;;;;;;3.17;2.97;;;;;;;22.33;49.40;94964.75;4988430;28;20238;-61
2022/08/12 00:59:47;;;;;;;4.18;3.88;;;;;;;22.42;49.29;94971.44;4990761;28;20231;-61
2022/08/12 01:02:21;;;;;;;3.30;3.05;;;;;;;22.35;49.60;94970.72;4989299;28;20202;-61
2022/08/12 01:13:06;;;;;;;3.53;3.30;;;;;;;22.34;49.64;94985.13;4989765;28;20310;-61
2022/08/12 01:15:31;;;;;;;3.83;3.22;;;;;;;;;;4991537;28;20234;-62
2022/08/12 01:17:57;;;;;;;4.70;3.28;;;;;;;22.29;49.57;94983.13;4996552;28;20301;-61
2022/08/12 01:20:40;;;;;;;3.20;3.00;;;;;;;22.39;49.25;94988.75;4988498;28;20219;-61
2022/08/12 01:23:30;;;;;;;3.75;3.45;;;;;;;22.44;49.08;94988.91;4984787;28;20195;-61
2022/08/12 01:25:59;;;;;;;3.33;3.03;;;;;;;22.37;49.40;94996.22;5005710;28;20225;-61
2022/08/12 01:28:27;;;;;;;3.72;3.30;;;;;;;22.18;50.03;94991.88;5009770;28;20231;-61
2022/08/12 01:30:53;;;;;;;4.53;3.13;;;;;;;22.19;49.78;94996.25;5018810;28;20235;-61
2022/08/12 01:33:21;;;;;;;3.40;3.20;;;;;;;22.01;50.54;94995.16;4996963;28;20220;-61
2022/08/12 01:35:58;;;;;;;3.60;3.20;;;;;;;22.25;49.80;94981.94;4981361;28;20282;-61
2022/08/12 01:38:24;;;;;;;4.03;3.53;;;;;;;22.28;49.90;94986.84;4978762;28;20334;-61
2022/08/12 01:40:51;;;;;;;3.83;3.50;;;;;;;22.30;50.17;94983.97;4979637;28;20223;-60
2022/08/12 01:43:20;;;;;;;4.18;3.70;;;;;;;;;;4982713;28;20227;-60
2022/08/12 01:46:15;;;;;;;3.75;3.45;;;;;;;22.35;50.17;94984.91;4977865;28;20224;-61
2022/08/12 01:48:52;;;;;;;3.65;3.35;;;;;;;22.29;50.38;94985.81;4989639;28;20223;-60
2022/08/12 01:51:42;;;;;;;6.53;4.43;;;;;;;22.33;50.32;94984.31;4986514;28;20246;-60
2022/08/12 01:54:17;;;;;;;5.05;4.65;;;;;;;22.27;50.61;94982.56;4989400;28;20661;-60
2022/08/12 01:57:12;;;;;;;5.22;4.80;;;;;;;22.21;50.74;94986.09;4972259;28;20246;-60
2022/08/12 01:59:49;;;;;;;4.72;4.15;;;;;;;22.28;50.56;94986.03;4971038;28;20302;-61
2022/08/12 02:02:38;;;;;;;5.35;4.85;;;;;;;22.24;50.57;94980.31;4968246;28;20221;-60
2022/08/12 02:11:24;;;;;;;4.60;4.20;;;;;;;22.04;51.17;94975.16;5006103;28;20297;-61
2022/08/12 02:14:17;;;;;;;4.70;4.30;;;;;;;21.98;51.30;94981.41;4992753;28;20227;-61
2022/08/12 02:16:49;;;;;;;4.82;4.43;;;;;;;22.16;50.71;94977.91;5006769;28;20277;-61
2022/08/12 02:19:28;;;;;;;6.28;4.45;;;;;;;21.95;51.10;94976.53;5012992;28;20367;-61
2022/08/12 02:22:16;;;;;;;4.25;3.80;;;;;;;21.94;51.38;94975.69;4973617;28;20223;-62
2022/08/12 02:24:44;;;;;;;4.72;4.32;;;;;;;21.82;51.48;94977.47;4998866;28;20248;-62
2022/08/12 02:27:12;;;;;;;4.20;3.90;;;;;;;21.90;51.56;94976.38;4995012;28;20235;-61
2022/08/12 02:29:39;;;;;;;6.72;4.80;;;;;;;21.87;51.43;94977.63;4984372;28;20230;-61
2022/08/12 02:32:07;;;;;;;5.38;4.85;;;;;;;21.92;51.10;94983.13;5002761;28;20230;-62
2022/08/12 02:34:33;;;;;;;6.72;4.82;;;;;;;21.92;50.95;94977.78;4982146;28;20718;-61
2022/08/12 02:37:00;;;;;;;5.03;4.63;;;;;;;22.01;50.88;94981.78;4985536;28;20258;-61
2022/08/12 02:39:28;;;;;;;5.20;4.70;;;;;;;22.00;50.81;94982.03;4987164;28;20263;-61
2022/08/12 02:41:59;;;;;;;5.78;4.75;;;;;;;21.77;51.70;94975.47;4989012;28;20218;-61
2022/08/12 02:44:27;;;;;;;5.35;4.85;;;;;;;21.68;51.75;94975.97;5007926;28;20221;-62
2022/08/12 02:46:55;;;;;;;5.20;4.80;;;;;;;21.63;51.77;94973.97;4985119;28;20199;-61
2022/08/12 02:49:25;;;;;;;5.97;5.55;;;;;;;21.23;52.70;94984.19;5004060;28;20223;-61
2022/08/12 02:51:51;;;;;;;5.57;5.03;;;;;;;21.47;52.03;94970.00;4984251;28;20223;-61
2022/08/12 02:54:17;;;;;;;5.53;5.03;;;;;;;21.44;52.12;94970.47;4980377;28;20226;-61
2022/08/12 02:56:43;;;;;;;5.47;5.07;;;;;;;21.47;52.16;94974.56;4988214;28;20229;-61
2022/08/12 02:59:12;;;;;;;5.18;4.68;;;;;;;21.45;52.04;94973.94;5009620;28;20234;-61
2022/08/12 03:01:55;;;;;;;5.43;4.93;;;;;;;21.53;51.96;94973.66;4985475;28;20219;-61
2022/08/12 03:04:49;;;;;;;6.03;5.40;;;;;;;21.35;52.32;94977.88;4986574;28;20235;-61
2022/08/12 03:07:15;;;;;;;5.63;5.05;;;;;;;21.63;52.25;94976.66;4974554;28;20219;-61
2022/08/12 03:10:12;;;;;;;6.38;5.32;;;;;;;21.59;53.00;94978.94;4987299;28;20226;-60
2022/08/12 03:12:41;;;;;;;6.32;5.63;;;;;;;21.41;53.20;94976.25;4984256;28;20232;-61
2022/08/12 03:15:10;;;;;;;8.15;7.38;;;;;;;21.40;52.80;94982.63;4987209;28;20231;-61
2022/08/12 03:18:15;;;;;;;7.68;7.00;;;;;;;21.36;52.73;94986.75;4987884;28;20247;-61
2022/08/12 03:20:40;;;;;;;7.32;5.80;;;;;;;21.41;52.26;94980.75;4966706;28;20243;-61
2022/08/12 03:23:14;;;;;;;6.90;5.45;;;;;;;21.46;51.90;94983.59;4978371;28;20211;-61
2022/08/12 03:25:41;;;;;;;5.90;4.72;;;;;;;21.50;51.61;94987.47;4964290;28;20323;-63
2022/08/12 03:28:11;;;;;;;5.85;4.93;;;;;;;21.54;51.63;94981.47;4991845;28;20242;-61
2022/08/12 03:30:41;;;;;;;5.47;4.97;;;;;;;21.44;52.31;94985.66;5001160;28;20219;-61
2022/08/12 03:33:11;;;;;;;6.00;5.25;;;;;;;21.28;52.85;94985.19;4982984;28;20351;-60
2022/08/12 03:35:41;;;;;;;5.18;4.68;;;;;;;21.23;53.58;94994.88;5003282;28;20290;-61
2022/08/12 03:38:10;;;;;;;5.70;5.20;;;;;;;21.14;53.99;94989.81;4987406;28;20297;-61
2022/08/12 04:00:24;;;;;;;7.22;5.45;;;;;;;21.48;57.53;95008.28;5003980;28;20233;-60
2022/08/12 04:03:00;;;;;;;5.90;5.40;;;;;;;21.50;57.56;95001.66;5006545;28;20229;-60
2022/08/12 04:05:30;;;;;;;6.45;5.82;;;;;;;21.49;59.86;95000.03;5006744;28;20653;-61
2022/08/12 04:07:58;;;;;;;8.13;6.30;;;;;;;21.36;59.41;95008.16;5012050;28;20217;-61
2022/08/12 04:13:14;;;;;;;8.48;6.03;;;;;;;21.47;60.13;95006.66;5007598;28;20388;-60
2022/08/12 04:13:18;;;;;;;8.02;6.53;;;;;;;21.32;61.71;95002.41;4986233;28;20235;-60
2022/08/12 04:15:44;;;;;;;7.35;6.75;;;;;;;21.39;61.77;95010.41;4988212;28;20250;-62
2022/08/12 04:18:14;;;;;;;8.25;6.50;;;;;;;21.30;63.12;95006.34;4992181;28;20564;-61
2022/08/12 04:20:41;;;;;;;8.70;7.15;;;;;;;21.10;65.80;95004.66;4988070;28;20222;-62
2022/08/12 04:23:11;;;;;;;8.32;7.53;;;;;;;21.12;64.65;95010.59;4987871;28;20199;-61
2022/08/12 04:25:38;;;;;;;8.10;7.40;;;;;;;21.00;65.94;95006.97;4989987;28;20277;-61
2022/08/12 04:28:06;;;;;;;8.38;7.57;;;;;;;20.93;66.86;95008.91;4989413;28;20283;-62
2022/08/12 04:30:31;;;;;;;8.18;7.47;;;;;;;20.94;67.92;95013.19;4991070;28;20220;-62
2022/08/12 04:32:57;;;;;;;10.85;7.85;;;;;;;20.96;69.03;95005.78;4995787;28;20238;-62
2022/08/12 04:35:23;;;;;;;9.82;8.82;;;;;;;20.86;68.66;95013.47;5015337;28;20210;-62
2022/08/12 04:37:53;;;;;;;8.88;8.07;;;;;;;20.83;66.72;95009.38;4996371;28;20251;-62
2022/08/12 04:40:22;;;;;;;8.73;7.80;;;;;;;20.74;66.60;95007.16;5002766;28;20222;-62
2022/08/12 04:42:47;;;;;;;9.48;7.43;;;;;;;20.66;66.35;95009.06;4990778;28;20236;-62
2022/08/12 04:45:13;;;;;;;8.45;7.53;;;;;;;20.58;66.63;95003.97;4991517;28;20317;-60
2022/08/12 04:47:38;;;;;;;7.65;7.03;;;;;;;20.44;66.05;94999.69;4989814;28;20262;-60
2022/08/12 04:50:06;;;;;;;7.90;7.10;;;;;;;20.36;66.69;94995.41;4986952;28;20206;-60
2022/08/12 04:52:32;;;;;;;9.65;7.88;;;;;;;20.26;69.83;94998.56;4975077;28;20228;-60
2022/08/12 04:54:57;;;;;;;8.45;7.75;;;;;;;20.14;69.60;94992.22;4983757;28;20222;-61
2022/08/12 04:57:23;;;;;;;9.73;8.23;;;;;;;20.26;69.66;94993.22;4983763;28;20223;-60
2022/08/12 04:59:48;;;;;;;8.35;7.55;;;;;;;20.24;69.29;94989.13;4985693;28;20223;-59
2022/08/12 05:02:15;;;;;;;10.40;8.82;;;;;;;19.98;70.17;94993.50;4989565;28;20699;-59
2022/08/12 05:04:42;;;;;;;8.70;7.78;;;;;;;20.33;69.29;94998.50;5006224;28;20203;-59
2022/08/12 05:07:07;;;;;;;10.10;8.63;;;;;;;20.21;70.96;94994.88;5003055;28;20230;-59
2022/08/12 05:09:33;;;;;;;8.13;7.43;;;;;;;20.12;70.49;94994.28;5007348;28;20235;-61
2022/08/12 05:11:58;;;;;;;8.25;7.50;;;;;;;20.10;69.64;94996.38;5002056;28;20285;-59
2022/08/12 05:14:24;;;;;;;8.20;7.50;;;;;;;20.04;69.19;95002.53;5007319;28;20222;-59
2022/08/12 05:16:49;;;;;;;7.95;7.25;;;;;;;20.33;70.06;95003.84;5003942;28;20200;-59
2022/08/12 05:19:15;;;;;;;9.30;8.50;;;;;;;20.27;71.38;95008.19;4988456;28;20216;-59
2022/08/12 05:21:44;;;;;;;9.00;8.30;;;;;;;20.42;70.42;95009.75;4999526;28;20261;-59
2022/08/12 05:24:09;;;;;;;9.73;8.93;;;;;;;20.49;70.61;95005.22;5007663;28;20273;-59
2022/08/12 05:26:35;;;;;;;9.00;8.10;;;;;;;20.51;70.68;95010.34;4999667;28;20806;-59
2022/08/12 05:29:01;;;;;;;10.32;9.32;;;;;;;20.44;71.07;95010.38;4978501;28;20196;-59
2022/08/12 05:31:26;;;;;;;9.93;9.13;;;;;;;20.61;72.32;95013.38;4980496;28;20247;-59
2022/08/12 05:33:52;;;;;;;11.25;10.13;;;;;;;20.65;71.24;95015.41;4984362;28;21296;-59
2022/08/12 05:36:18;;;;;;;9.93;8.75;;;;;;;20.70;71.65;95012.94;4991037;28;20235;-59
2022/08/12 05:38:58;;;;;;;11.70;9.27;;;;;;;20.54;70.75;95015.28;5001172;28;20238;-59
2022/08/12 05:41:29;;;;;;;9.68;8.82;;;;;;;20.77;70.48;95017.41;4986136;28;20223;-59
2022/08/12 05:44:06;;;;;;;8.13;7.25;;;;;;;21.02;68.50;95015.59;4987109;28;20305;-59
2022/08/12 05:46:33;;;;;;;8.18;7.25;;;;;;;21.03;67.32;95021.75;4974088;28;20222;-61
2022/08/12 05:49:02;;;;;;;7.72;7.13;;;;;;;21.13;66.28;95022.09;4971642;28;20230;-60
2022/08/12 05:51:31;;;;;;;7.22;6.63;;;;;;;21.18;67.28;95029.50;4980664;28;20235;-63
2022/08/12 05:53:57;;;;;;;6.43;5.82;;;;;;;21.17;66.21;95028.69;5000359;28;20224;-61
2022/08/12 05:56:28;;;;;;;5.88;5.18;;;;;;;21.35;64.91;95020.69;4979607;28;20204;-64
2022/08/12 05:58:55;;;;;;;6.25;5.60;;;;;;;21.30;65.65;95019.69;4975392;28;20208;-61
2022/08/12 06:01:23;;;;;;;5.45;5.05;;;;;;;21.05;65.29;95028.53;4990925;28;20220;-62
2022/08/12 06:03:49;;;;;;;5.18;4.78;;;;;;;21.37;64.80;95025.81;4993321;28;20227;-63
2022/08/12 06:06:16;;;;;;;5.40;4.85;;;;;;;21.40;64.67;95027.28;4993220;28;20227;-63
2022/08/12 06:08:47;;;;;;;5.35;4.85;;;;;;;21.62;62.40;95014.31;4972523;28;20231;-63
2022/08/12 06:11:16;;;;;;;5.15;4.75;;;;;;;21.72;62.09;95014.63;4983729;28;20191;-62
2022/08/12 06:13:43;;;;;;;5.68;5.00;;;;;;;21.79;62.14;95023.44;4987827;28;20254;-63
2022/08/12 06:16:15;;;;;;;5.55;5.05;;;;;;;21.72;62.81;95028.84;4987052;28;20228;-61
2022/08/12 06:18:41;;;;;;;7.20;4.90;;;;;;;21.90;61.83;95024.56;4986674;28;20231;-63
2022/08/12 06:21:09;;;;;;;7.97;5.50;;;;;;;21.86;61.30;95016.13;4985235;28;20254;-64
2022/08/12 06:23:35;;;;;;;6.95;6.18;;;;;;;21.99;61.34;95020.53;4983447;28;20227;-64
2022/08/12 06:26:01;;;;;;;6.95;6.10;;;;;;;22.02;61.36;95017.41;4996977;28;20216;-63
2022/08/12 06:28:29;;;;;;;6.50;5.90;;;;;;;22.05;61.19;95021.50;5005604;28;20334;-61
2022/08/12 06:30:55;;;;;;;6.30;5.70;;;;;;;22.15;60.97;95013.75;5003266;28;20273;-61
2022/08/12 06:33:21;;;;;;;7.20;6.35;;;;;;;22.11;61.20;95015.28;4984937;28;20242;-61
2022/08/12 06:35:48;;;;;;;6.22;5.70;;;;;;;22.01;60.88;95016.59;4975816;28;20220;-63
2022/08/12 06:38:18;;;;;;;10.15;5.15;;;;;;;22.15;61.17;95019.13;4981314;28;20262;-61
2022/08/12 06:43:29;;;;;;;9.82;5.80;;;;;;;22.38;60.33;95016.59;4972410;28;20226;-61
2022/08/12 06:45:56;;;;;;;6.28;4.63;;;;;;;22.43;59.16;95022.13;4982961;28;20231;-62
2022/08/12 06:48:32;;;;;;;5.95;5.45;;;;;;;22.45;60.09;95017.34;4990241;28;20265;-65
2022/08/12 06:50:57;;;;;;;6.32;5.82;;;;;;;22.55;58.07;95014.13;4995251;28;20235;-62
2022/08/12 06:53:25;;;;;;;5.60;5.10;;;;;;;22.63;57.91;95015.66;4985615;28;20210;-61
2022/08/12 06:55:53;;;;;;;6.45;5.70;;;;;;;22.60;57.68;95016.13;4975491;28;20511;-63
2022/08/12 06:58:19;;;;;;;6.95;5.97;;;;;;;22.58;57.37;95012.84;4973766;28;21288;-63
2022/08/12 07:00:49;;;;;;;6.63;5.88;;;;;;;22.41;56.69;95018.03;4973152;28;20305;-62
2022/08/12 07:03:24;;;;;;;10.15;7.25;;;;;;;22.67;56.48;95015.00;4986738;28;20249;-65
2022/08/12 07:05:50;;;;;;;7.30;6.70;;;;;;;22.72;55.76;95008.97;5007231;28;20230;-62
2022/08/12 07:08:15;;;;;;;8.27;7.45;;;;;;;22.58;56.71;95012.84;5005224;28;20215;-60
2022/08/12 07:10:58;;;;;;;7.80;7.05;;;;;;;22.62;56.29;95012.19;4991608;28;20286;-63
2022/08/12 07:13:43;;;;;;;7.72;6.93;;;;;;;22.96;56.03;95003.66;5005485;28;20222;-62
2022/08/12 07:16:17;;;;;;;7.75;6.40;;;;;;;23.14;55.42;95003.63;5004007;28;20227;-61
2022/08/12 07:18:46;;;;;;;7.03;6.40;;;;;;;23.27;55.43;95018.69;4993944;28;20274;-62
2022/08/12 07:21:13;;;;;;;7.97;6.85;;;;;;;23.32;54.74;95013.44;4997786;28;20285;-62
2022/08/12 07:23:40;;;;;;;7.50;6.75;;;;;;;23.37;53.92;95010.91;4979018;28;20246;-63
2022/08/12 07:26:08;;;;;;;7.68;6.80;;;;;;;23.41;54.12;95011.25;5007243;28;20211;-65
2022/08/12 07:28:38;;;;;;;8.00;7.15;;;;;;;23.63;53.44;95008.78;5004334;28;20242;-63
2022/08/12 07:31:07;;;;;;;11.52;6.65;;;;;;;23.42;53.77;95010.22;4987790;28;20228;-63
2022/08/12 07:33:37;;;;;;;9.18;7.25;;;;;;;23.22;53.98;95010.50;4983122;28;20298;-62
2022/08/12 07:36:05;;;;;;;8.65;7.05;;;;;;;23.41;54.49;95008.56;4987235;28;20278;-63
2022/08/12 07:38:38;;;;;;;7.80;7.03;;;;;;;23.50;54.18;95007.19;4987246;28;20235;-65
2022/08/12 07:41:24;;;;;;;7.10;6.40;;;;;;;23.45;55.36;95007.06;4988653;28;20195;-63
2022/08/12 07:43:59;;;;;;;7.30;6.50;;;;;;;23.65;54.06;94998.66;5020141;28;20223;-63
2022/08/12 07:46:30;;;;;;;9.85;6.82;;;;;;;23.73;54.01;94993.75;4983672;28;20227;-63
2022/08/12 07:49:04;;;;;;;8.13;7.05;;;;;;;24.08;52.89;94994.78;5001857;28;20237;-61
2022/08/12 07:51:30;;;;;;;7.90;6.45;;;;;;;24.46;50.17;94988.88;5010239;28;20222;-63
2022/08/12 07:53:57;;;;;;;7.10;6.05;;;;;;;24.34;48.70;94990.75;5001023;28;20333;-61
2022/08/12 07:56:23;;;;;;;5.93;5.07;;;;;;;24.48;48.61;94989.44;4983452;28;20211;-63
2022/08/12 07:58:48;;;;;;;6.40;5.30;;;;;;;24.82;48.88;94990.34;4980609;28;20208;-63
2022/08/12 08:01:20;;;;;;;5.30;4.72;;;;;;;25.03;47.43;94996.09;4974204;28;20223;-63
2022/08/12 08:06:33;;;;;;;4.45;4.05;;;;;;;25.05;46.96;94991.31;4976527;28;20253;-61
2022/08/12 08:08:59;;;;;;;5.93;4.63;;;;;;;25.50;45.75;94982.34;4983144;28;20219;-61
2022/08/12 08:14:10;;;;;;;3.80;3.50;;;;;;;25.70;43.70;94984.56;4992576;28;20220;-62
2022/08/12 08:16:36;;;;;;;4.13;3.70;;;;;;;25.64;43.64;94988.25;4980830;28;20220;-64
2022/08/12 08:19:19;;;;;;;3.90;3.60;;;;;;;25.58;43.85;94984.66;4985707;28;20241;-63
2022/08/12 08:21:45;;;;;;;3.95;3.65;;;;;;;25.63;44.26;94982.03;4981305;28;20235;-62
2022/08/12 08:24:13;;;;;;;4.70;4.18;;;;;;;25.66;43.78;94981.56;4987413;28;20314;-63
2022/08/12 08:26:41;;;;;;;3.38;3.08;;;;;;;25.32;42.58;94979.94;4990090;28;20224;-63
2022/08/12 08:29:07;;;;;;;4.60;3.60;;;;;;;25.53;43.68;94973.81;4982223;28;20207;-61
2022/08/12 08:31:34;;;;;;;5.38;3.85;;;;;;;25.77;44.25;94974.44;4982956;28;20273;-61
2022/08/12 08:34:00;;;;;;;4.63;4.22;;;;;;;25.82;44.21;94969.13;4995836;28;20235;-62
2022/08/12 08:36:26;;;;;;;5.53;4.72;;;;;;;26.02;43.92;94965.09;5004325;28;20306;-60
2022/08/12 08:38:52;;;;;;;5.43;5.00;;;;;;;26.24;43.08;94968.59;5000304;28;20322;-61
2022/08/12 08:44:01;;;;;;;5.75;4.28;;;;;;;25.29;43.51;94965.09;4991435;28;20269;-62
2022/08/12 08:46:27;;;;;;;4.22;3.83;;;;;;;25.52;43.67;94964.09;4990639;28;20255;-62
2022/08/12 08:48:53;;;;;;;4.22;3.70;;;;;;;25.43;43.75;94958.31;4986591;28;20274;-63
2022/08/12 08:51:20;;;;;;;4.30;3.90;;;;;;;25.51;43.53;94960.59;4985757;28;20235;-61
2022/08/12 08:53:45;;;;;;;4.45;3.70;;;;;;;25.59;43.10;94963.94;4980521;28;20266;-62
2022/08/12 08:56:10;;;;;;;4.38;3.95;;;;;;;25.63;42.43;94963.16;4988088;28;20295;-62
2022/08/12 08:58:37;;;;;;;4.57;3.55;;;;;;;25.61;42.11;94957.25;4988742;28;20624;-62
2022/08/12 09:01:03;;;;;;;4.38;3.72;;;;;;;25.41;42.23;94957.72;4988631;28;20219;-62
2022/08/12 09:03:29;;;;;;;4.50;3.75;;;;;;;25.44;42.19;94951.84;4984929;28;20318;-62
2022/08/12 09:05:55;;;;;;;3.60;3.30;;;;;;;25.68;40.93;94959.75;4988310;28;20310;-62
2022/08/12 09:08:21;;;;;;;3.35;3.13;;;;;;;25.84;39.68;94948.16;4997906;28;20205;-62
2022/08/12 09:10:47;;;;;;;4.10;3.13;;;;;;;25.95;40.01;94946.41;4995756;28;20207;-62
2022/08/12 09:13:33;;;;;;;6.38;4.00;;;;;;;25.88;40.63;94946.59;4975403;28;20278;-63
2022/08/12 09:15:59;;;;;;;3.60;3.30;;;;;;;26.06;40.76;94948.19;4974387;28;20318;-62
2022/08/12 09:18:26;;;;;;;3.97;3.20;;;;;;;26.32;39.73;94938.50;4980016;28;20230;-63
2022/08/12 09:20:52;;;;;;;4.70;3.45;;;;;;;26.52;39.27;94937.97;4976790;28;20236;-62
2022/08/12 09:23:17;;;;;;;4.70;4.30;;;;;;;26.26;39.32;94939.53;4979723;28;20207;-63
2022/08/12 09:25:43;;;;;;;3.70;3.40;;;;;;;26.28;38.91;94934.69;4986667;28;20212;-62
2022/08/12 09:28:10;;;;;;;4.43;3.78;;;;;;;26.49;37.56;94943.00;4976448;28;20266;-62
2022/08/12 09:30:38;;;;;;;4.20;3.80;;;;;;;26.29;37.28;94939.00;4977318;28;20696;-63
2022/08/12 09:33:05;;;;;;;4.95;4.35;;;;;;;26.21;37.75;94938.66;4988375;28;20277;-62
2022/08/12 09:35:33;;;;;;;5.40;4.90;;;;;;;26.22;37.14;94937.56;4971873;28;20241;-63
2022/08/12 09:38:03;;;;;;;3.60;3.30;;;;;;;26.29;37.39;94943.59;4974267;28;20271;-62
2022/08/12 09:40:29;;;;;;;4.47;4.07;;;;;;;26.33;36.78;94937.47;4988335;28;20496;-63
2022/08/12 09:45:44;;;;;;;4.43;4.03;;;;;;;26.38;37.54;94931.28;4972736;28;20231;-62
2022/08/12 09:48:15;;;;;;;3.80;3.50;;;;;;;26.60;37.20;94940.22;4979558;28;20243;-62
2022/08/12 09:50:41;;;;;;;3.50;3.20;;;;;;;26.15;38.18;94930.50;4990164;28;20227;-63
2022/08/12 09:53:10;;;;;;;4.70;3.60;;;;;;;26.67;37.70;94933.78;4983196;28;20222;-65
2022/08/12 09:55:36;;;;;;;4.38;3.97;;;;;;;26.68;37.48;94925.44;5003658;28;20277;-62
2022/08/12 09:58:03;;;;;;;3.60;3.30;;;;;;;26.54;37.40;94924.22;5006352;28;20229;-62
2022/08/12 10:00:33;;;;;;;3.95;3.30;;;;;;;26.61;37.49;94916.75;5010305;28;20234;-62
2022/08/12 10:03:09;;;;;;;3.30;2.90;;;;;;;26.55;37.43;94921.28;4993513;28;20601;-62
2022/08/12 10:05:39;;;;;;;3.55;3.25;;;;;;;26.64;36.81;94912.72;4989848;28;20309;-63
2022/08/12 10:08:09;;;;;;;3.72;3.42;;;;;;;26.60;37.06;94912.44;4971935;28;20305;-62
2022/08/12 10:13:40;;;;;;;4.15;3.85;;;;;;;26.90;36.62;94911.09;4992213;28;20234;-62
2022/08/12 10:16:05;;;;;;;3.80;3.40;;;;;;;26.71;36.67;94902.56;4990844;28;20235;-61
2022/08/12 10:18:31;;;;;;;3.42;2.97;;;;;;;26.76;36.39;94900.72;4984740;28;20227;-60
2022/08/12 10:20:58;;;;;;;3.88;3.20;;;;;;;26.71;36.50;94899.84;4980904;28;20231;-61
2022/08/12 10:23:23;;;;;;;4.03;3.67;;;;;;;26.95;36.42;94900.34;4987209;28;20222;-60
2022/08/12 10:31:18;;;;;;;3.75;3.50;;;;;;;26.83;36.08;94890.50;5006936;28;20226;-61
2022/08/12 10:33:44;;;;;;;5.75;3.58;;;;;;;26.98;35.30;94887.13;5004684;28;20227;-61
2022/08/12 10:36:11;;;;;;;3.85;3.55;;;;;;;26.89;35.88;94885.16;5002324;28;20234;-64
2022/08/12 10:38:37;;;;;;;3.53;3.33;;;;;;;27.02;35.25;94888.25;4990506;28;20258;-62
2022/08/12 10:43:46;;;;;;;3.85;3.55;;;;;;;26.86;35.81;94888.38;4986115;28;20285;-63
2022/08/12 10:46:17;;;;;;;3.47;3.20;;;;;;;26.71;36.53;94892.56;4984060;28;20672;-63
2022/08/12 10:48:50;;;;;;;3.53;3.33;;;;;;;26.80;36.00;94882.94;4982971;28;20224;-62
2022/08/12 10:51:19;;;;;;;3.45;3.15;;;;;;;26.69;36.53;94883.91;4996078;28;20242;-61
2022/08/12 10:53:45;;;;;;;3.20;2.90;;;;;;;26.74;36.71;94889.34;4984460;28;20231;-62
2022/08/12 10:56:14;;;;;;;4.50;3.72;;;;;;;26.75;36.29;94884.78;4983886;28;20208;-62
2022/08/12 10:58:40;;;;;;;3.65;3.38;;;;;;;26.79;36.34;94881.31;4976423;28;20729;-61
2022/08/12 11:01:09;;;;;;;3.58;3.30;;;;;;;26.76;36.21;94879.13;4981256;28;20219;-61
2022/08/12 11:03:38;;;;;;;3.80;3.50;;;;;;;26.75;36.65;94869.41;5004919;28;20246;-62
2022/08/12 11:06:05;;;;;;;4.53;3.83;;;;;;;26.75;36.53;94869.41;4998687;28;20224;-62
2022/08/12 11:08:33;;;;;;;3.63;3.35;;;;;;;26.83;36.24;94873.50;4987310;28;20250;-63
2022/08/12 11:10:59;;;;;;;3.75;3.38;;;;;;;26.76;35.93;94867.53;5006166;28;20207;-62
2022/08/12 11:13:24;;;;;;;4.00;3.70;;;;;;;26.72;36.12;94866.41;4987892;28;20238;-62
2022/08/12 11:15:51;;;;;;;4.07;3.42;;;;;;;26.69;36.57;94872.31;4997414;28;20227;-63
2022/08/12 11:18:17;;;;;;;4.05;3.75;;;;;;;26.69;36.14;94870.44;4999574;28;20234;-61
2022/08/12 11:20:42;;;;;;;5.32;3.78;;;;;;;26.71;36.10;94871.00;5004528;28;20541;-63
2022/08/12 11:23:08;;;;;;;4.30;3.90;;;;;;;26.73;36.32;94858.06;4992689;28;20225;-61
2022/08/12 11:25:33;;;;;;;6.63;3.88;;;;;;;26.88;36.53;94861.97;5012239;28;20305;-62
2022/08/12 11:27:59;;;;;;;3.80;3.55;;;;;;;26.58;37.02;94866.03;4990619;28;20310;-63
2022/08/12 11:30:24;;;;;;;5.47;3.58;;;;;;;26.92;36.12;94854.97;4986577;28;20223;-62
2022/08/12 11:32:49;;;;;;;4.45;3.47;;;;;;;26.82;35.91;94851.13;4991377;28;20235;-64
2022/08/12 11:35:15;;;;;;;4.50;4.20;;;;;;;26.87;36.53;94852.25;4989233;28;20207;-62
2022/08/12 11:37:40;;;;;;;4.13;3.50;;;;;;;26.98;35.97;94841.25;4990839;28;20257;-61
2022/08/12 11:40:06;;;;;;;4.07;3.75;;;;;;;27.08;36.21;94843.22;4979322;28;20235;-61
2022/08/12 11:42:35;;;;;;;4.68;3.88;;;;;;;27.16;36.18;94839.22;4997428;28;20226;-61
2022/08/12 11:45:00;;;;;;;6.95;3.95;;;;;;;27.27;36.26;94846.34;5000268;28;20231;-60
2022/08/12 11:47:26;;;;;;;4.97;4.00;;;;;;;27.10;36.25;94849.16;5026133;28;20254;-60
2022/08/12 11:49:51;;;;;;;5.30;3.60;;;;;;;27.17;36.46;94848.97;4986365;28;20211;-61
2022/08/12 11:52:17;;;;;;;5.65;3.55;;;;;;;27.16;37.32;94850.00;4992256;28;20223;-60
2022/08/12 11:54:42;;;;;;;3.58;3.38;;;;;;;26.95;37.17;94851.78;4987993;28;20231;-63
2022/08/12 11:57:07;;;;;;;4.35;3.53;;;;;;;26.80;38.49;94852.44;4997973;28;20226;-63
2022/08/12 11:59:33;;;;;;;4.95;3.58;;;;;;;26.53;40.06;94852.50;5006954;28;20222;-63
2022/08/12 12:01:59;;;;;;;4.43;3.92;;;;;;;26.44;41.51;94853.97;5011739;28;20211;-63
2022/08/12 12:04:25;;;;;;;4.05;3.75;;;;;;;26.45;42.61;94851.03;4991965;28;20230;-62
2022/08/12 12:06:50;;;;;;;4.97;3.80;;;;;;;26.53;41.92;94847.09;5014870;28;20226;-61
2022/08/12 12:09:16;;;;;;;5.43;4.07;;;;;;;26.55;42.66;94850.34;4983358;28;20231;-63
2022/08/12 12:11:42;;;;;;;3.80;3.53;;;;;;;26.54;42.69;94848.72;4998409;28;20257;-63
2022/08/12 12:14:08;;;;;;;5.32;3.80;;;;;;;26.66;41.02;94849.38;5010085;28;20304;-63
2022/08/12 12:16:34;;;;;;;4.10;3.80;;;;;;;26.68;40.26;94847.25;4989677;28;20219;-64
2022/08/12 12:19:00;;;;;;;5.20;3.92;;;;;;;26.40;40.53;94840.19;5009304;28;20237;-64
2022/08/12 12:21:26;;;;;;;4.22;3.83;;;;;;;26.79;40.11;94843.56;4990088;28;20227;-62
2022/08/12 12:23:52;;;;;;;3.70;3.40;;;;;;;27.13;37.98;94837.88;5001087;28;20246;-61
2022/08/12 12:26:17;;;;;;;5.80;3.72;;;;;;;27.36;37.35;94833.16;4990356;28;20296;-61
2022/08/12 12:28:43;;;;;;;4.63;3.42;;;;;;;27.44;36.46;94830.78;4990635;28;20227;-61
2022/08/12 12:31:08;;;;;;;3.95;3.65;;;;;;;27.57;36.21;94829.50;4988089;28;20238;-61
2022/08/12 12:33:34;;;;;;;4.40;4.00;;;;;;;27.87;36.02;94838.84;4984964;28;20230;-61
2022/08/12 12:36:00;;;;;;;4.32;4.00;;;;;;;28.39;35.34;94837.91;4993138;28;20220;-62
2022/08/12 12:38:26;;;;;;;4.60;4.18;;;;;;;28.62;35.02;94833.09;4990653;28;20231;-62
2022/08/12 12:40:51;;;;;;;4.35;3.45;;;;;;;28.49;34.40;94835.22;4987295;28;20199;-60
2022/08/12 12:43:17;;;;;;;5.47;4.05;;;;;;;28.53;34.54;94830.94;4982196;28;20216;-61
2022/08/12 12:45:44;;;;;;;3.95;3.55;;;;;;;28.88;33.80;94832.03;4994916;28;20251;-61
2022/08/12 12:48:12;;;;;;;3.95;3.58;;;;;;;29.63;32.53;94815.94;4998079;28;20315;-61
2022/08/12 12:51:16;;;;;;;3.63;3.33;;;;;;;30.01;31.84;94810.09;4985405;28;20223;-61
2022/08/12 12:53:45;;;;;;;3.60;3.30;;;;;;;30.81;30.05;94806.38;5006277;28;20231;-61
2022/08/12 12:56:16;;;;;;;6.32;4.03;;;;;;;31.57;28.97;94802.94;4996996;28;20214;-61
2022/08/12 12:58:42;;;;;;;4.03;3.75;;;;;;;31.98;28.14;94799.75;4989247;28;20211;-60
2022/08/12 13:01:09;;;;;;;3.83;3.53;;;;;;;31.90;28.02;94792.22;4992598;28;20322;-61
2022/08/12 13:03:34;;;;;;;3.13;2.92;;;;;;;32.01;28.15;94792.91;4989630;28;20222;-61
2022/08/12 13:06:02;;;;;;;4.68;3.80;;;;;;;32.10;28.78;94796.59;4983472;28;20231;-61
2022/08/12 13:08:30;;;;;;;4.22;3.63;;;;;;;32.36;28.48;94801.69;4986240;28;20298;-61
2022/08/12 13:11:00;;;;;;;3.85;3.55;;;;;;;32.44;27.83;94809.97;4980756;28;20208;-62
2022/08/12 13:13:28;;;;;;;5.25;3.70;;;;;;;32.08;27.60;94796.91;4986644;28;20227;-62
2022/08/12 13:15:55;;;;;;;3.42;3.22;;;;;;;32.54;28.05;94803.63;4997007;28;20265;-62
2022/08/12 13:18:21;;;;;;;3.97;3.67;;;;;;;32.93;26.89;94797.00;5006436;28;20222;-60
2022/08/12 13:20:47;;;;;;;3.70;3.25;;;;;;;32.62;27.31;94797.50;4999002;28;20450;-62
2022/08/12 13:23:18;;;;;;;5.45;3.08;;;;;;;32.84;27.22;94791.44;4985561;28;20202;-63
2022/08/12 13:25:45;;;;;;;3.67;3.38;;;;;;;33.06;26.36;94796.25;4977353;28;20195;-62